sensor_id;sensor_type;location;lat;lon;timestamp;temperature;humidity
53310;DHT22;39197;53.200;5.792;2022-07-29T00:00:12;15.20;99.90
53310;DHT22;39197;53.200;5.792;2022-07-29T00:02:37;15.20;99.90
53310;DHT22;39197;53.200;5.792;2022-07-29T00:05:04;15.20;99.90
53310;DHT22;39197;53.200;5.792;2022-07-29T00:07:29;15.20;99.90
53310;DHT22;39197;53.200;5.792;2022-07-29T00:09:55;15.20;99.90
53310;DHT22;39197;53.200;5.792;2022-07-29T00:12:22;15.20;99.90
53310;DHT22;39197;53.200;5.792;2022-07-29T00:14:48;15.20;99.90
53310;DHT22;39197;53.200;5.792;2022-07-29T00:17:14;15.20;99.90
53310;DHT22;39197;53.200;5.792;2022-07-29T00:19:39;15.20;99.90
53310;DHT22;39197;53.200;5.792;2022-07-29T00:22:05;15.20;99.90
53310;DHT22;39197;53.200;5.792;2022-07-29T00:24:30;15.20;99.90
53310;DHT22;39197;53.200;5.792;2022-07-29T00:26:56;15.20;99.90
53310;DHT22;39197;53.200;5.792;2022-07-29T00:29:22;15.20;99.90
53310;DHT22;39197;53.200;5.792;2022-07-29T00:31:47;15.30;99.90
53310;DHT22;39197;53.200;5.792;2022-07-29T00:34:13;15.30;99.90
53310;DHT22;39197;53.200;5.792;2022-07-29T00:36:57;15.30;99.90
53310;DHT22;39197;53.200;5.792;2022-07-29T00:39:23;15.30;99.90
53310;DHT22;39197;53.200;5.792;2022-07-29T00:41:49;15.20;99.90
53310;DHT22;39197;53.200;5.792;2022-07-29T00:44:14;15.20;99.90
53310;DHT22;39197;53.200;5.792;2022-07-29T00:46:40;15.20;99.90
53310;DHT22;39197;53.200;5.792;2022-07-29T00:49:05;15.30;99.90
53310;DHT22;39197;53.200;5.792;2022-07-29T00:51:36;15.30;99.90
53310;DHT22;39197;53.200;5.792;2022-07-29T00:54:03;15.30;99.90
53310;DHT22;39197;53.200;5.792;2022-07-29T00:56:32;15.30;99.90
53310;DHT22;39197;53.200;5.792;2022-07-29T00:58:58;15.30;99.90
53310;DHT22;39197;53.200;5.792;2022-07-29T01:01:25;15.30;99.90
53310;DHT22;39197;53.200;5.792;2022-07-29T01:03:51;15.30;99.90
53310;DHT22;39197;53.200;5.792;2022-07-29T01:06:17;15.30;99.90
53310;DHT22;39197;53.200;5.792;2022-07-29T01:08:43;15.30;99.90
53310;DHT22;39197;53.200;5.792;2022-07-29T01:11:10;15.30;99.90
53310;DHT22;39197;53.200;5.792;2022-07-29T01:13:36;15.30;99.90
53310;DHT22;39197;53.200;5.792;2022-07-29T01:16:13;15.30;99.90
53310;DHT22;39197;53.200;5.792;2022-07-29T01:18:46;15.30;99.90
53310;DHT22;39197;53.200;5.792;2022-07-29T01:26:45;15.30;99.90
53310;DHT22;39197;53.200;5.792;2022-07-29T01:29:32;15.30;99.90
53310;DHT22;39197;53.200;5.792;2022-07-29T01:32:09;15.30;99.90
53310;DHT22;39197;53.200;5.792;2022-07-29T01:35:28;15.30;99.90
53310;DHT22;39197;53.200;5.792;2022-07-29T01:37:43;15.30;99.90
53310;DHT22;39197;53.200;5.792;2022-07-29T01:40:18;15.40;99.90
53310;DHT22;39197;53.200;5.792;2022-07-29T01:42:49;15.30;99.90
53310;DHT22;39197;53.200;5.792;2022-07-29T01:45:28;15.30;99.90
53310;DHT22;39197;53.200;5.792;2022-07-29T01:48:05;15.30;99.90
53310;DHT22;39197;53.200;5.792;2022-07-29T01:50:40;15.30;99.90
53310;DHT22;39197;53.200;5.792;2022-07-29T01:53:10;15.40;99.90
53310;DHT22;39197;53.200;5.792;2022-07-29T01:55:44;15.40;99.90
53310;DHT22;39197;53.200;5.792;2022-07-29T01:58:09;15.40;99.90
53310;DHT22;39197;53.200;5.792;2022-07-29T02:00:36;15.40;99.90
53310;DHT22;39197;53.200;5.792;2022-07-29T02:03:07;15.40;99.90
53310;DHT22;39197;53.200;5.792;2022-07-29T02:05:35;15.40;99.90
53310;DHT22;39197;53.200;5.792;2022-07-29T02:08:01;15.40;99.90
53310;DHT22;39197;53.200;5.792;2022-07-29T02:10:29;15.30;99.90
53310;DHT22;39197;53.200;5.792;2022-07-29T02:12:57;15.40;99.90
53310;DHT22;39197;53.200;5.792;2022-07-29T02:15:25;15.40;99.90
53310;DHT22;39197;53.200;5.792;2022-07-29T02:17:59;15.40;99.90
53310;DHT22;39197;53.200;5.792;2022-07-29T02:20:27;15.40;99.90
53310;DHT22;39197;53.200;5.792;2022-07-29T02:22:54;15.40;99.90
53310;DHT22;39197;53.200;5.792;2022-07-29T02:25:22;15.40;99.90
53310;DHT22;39197;53.200;5.792;2022-07-29T02:27:50;15.40;99.90
53310;DHT22;39197;53.200;5.792;2022-07-29T02:30:17;15.40;99.90
53310;DHT22;39197;53.200;5.792;2022-07-29T02:32:44;15.40;99.90
53310;DHT22;39197;53.200;5.792;2022-07-29T02:35:13;15.30;99.90
53310;DHT22;39197;53.200;5.792;2022-07-29T02:37:40;15.30;99.90
53310;DHT22;39197;53.200;5.792;2022-07-29T02:40:10;15.30;99.90
53310;DHT22;39197;53.200;5.792;2022-07-29T02:42:37;15.30;99.90
53310;DHT22;39197;53.200;5.792;2022-07-29T02:45:05;15.30;99.90
53310;DHT22;39197;53.200;5.792;2022-07-29T02:47:36;15.30;99.90
53310;DHT22;39197;53.200;5.792;2022-07-29T02:52:37;15.30;99.90
53310;DHT22;39197;53.200;5.792;2022-07-29T02:55:40;15.30;99.90
53310;DHT22;39197;53.200;5.792;2022-07-29T02:58:19;15.30;99.90
53310;DHT22;39197;53.200;5.792;2022-07-29T03:00:48;15.30;99.90
53310;DHT22;39197;53.200;5.792;2022-07-29T03:03:18;15.40;99.90
53310;DHT22;39197;53.200;5.792;2022-07-29T03:05:44;15.30;99.90
53310;DHT22;39197;53.200;5.792;2022-07-29T03:08:11;15.30;99.90
53310;DHT22;39197;53.200;5.792;2022-07-29T03:10:39;15.30;99.90
53310;DHT22;39197;53.200;5.792;2022-07-29T03:13:07;15.30;99.90
53310;DHT22;39197;53.200;5.792;2022-07-29T03:15:35;15.30;99.90
53310;DHT22;39197;53.200;5.792;2022-07-29T03:18:00;15.30;99.90
53310;DHT22;39197;53.200;5.792;2022-07-29T03:20:27;15.30;99.90
53310;DHT22;39197;53.200;5.792;2022-07-29T03:22:53;15.30;99.90
53310;DHT22;39197;53.200;5.792;2022-07-29T03:25:20;15.30;99.90
53310;DHT22;39197;53.200;5.792;2022-07-29T03:27:47;15.30;99.90
53310;DHT22;39197;53.200;5.792;2022-07-29T03:30:14;15.30;99.90
53310;DHT22;39197;53.200;5.792;2022-07-29T03:32:40;15.30;99.90
53310;DHT22;39197;53.200;5.792;2022-07-29T03:35:07;15.30;99.90
53310;DHT22;39197;53.200;5.792;2022-07-29T03:37:33;15.30;99.90
53310;DHT22;39197;53.200;5.792;2022-07-29T03:40:00;15.30;99.90
53310;DHT22;39197;53.200;5.792;2022-07-29T03:42:30;15.20;99.90
53310;DHT22;39197;53.200;5.792;2022-07-29T03:44:58;15.30;99.90
53310;DHT22;39197;53.200;5.792;2022-07-29T03:47:27;15.30;99.90
53310;DHT22;39197;53.200;5.792;2022-07-29T03:49:59;15.20;99.90
53310;DHT22;39197;53.200;5.792;2022-07-29T03:52:25;15.30;99.90
53310;DHT22;39197;53.200;5.792;2022-07-29T03:54:51;15.30;99.90
53310;DHT22;39197;53.200;5.792;2022-07-29T03:57:20;15.30;99.90
53310;DHT22;39197;53.200;5.792;2022-07-29T03:59:48;15.30;99.90
53310;DHT22;39197;53.200;5.792;2022-07-29T04:02:14;15.30;99.90
53310;DHT22;39197;53.200;5.792;2022-07-29T04:04:40;15.30;99.90
53310;DHT22;39197;53.200;5.792;2022-07-29T04:07:05;15.30;99.90
53310;DHT22;39197;53.200;5.792;2022-07-29T04:09:31;15.30;99.90
53310;DHT22;39197;53.200;5.792;2022-07-29T04:11:56;15.30;99.90
53310;DHT22;39197;53.200;5.792;2022-07-29T04:14:22;15.30;99.90
53310;DHT22;39197;53.200;5.792;2022-07-29T04:16:47;15.30;99.90
53310;DHT22;39197;53.200;5.792;2022-07-29T04:19:13;15.30;99.90
53310;DHT22;39197;53.200;5.792;2022-07-29T04:21:40;15.30;99.90
53310;DHT22;39197;53.200;5.792;2022-07-29T04:24:06;15.30;99.90
53310;DHT22;39197;53.200;5.792;2022-07-29T04:26:32;15.30;99.90
53310;DHT22;39197;53.200;5.792;2022-07-29T04:28:58;15.30;99.90
53310;DHT22;39197;53.200;5.792;2022-07-29T04:31:24;15.30;99.90
53310;DHT22;39197;53.200;5.792;2022-07-29T04:33:50;15.30;99.90
53310;DHT22;39197;53.200;5.792;2022-07-29T04:36:15;15.30;99.90
53310;DHT22;39197;53.200;5.792;2022-07-29T04:38:41;15.30;99.90
53310;DHT22;39197;53.200;5.792;2022-07-29T04:41:07;15.30;99.90
53310;DHT22;39197;53.200;5.792;2022-07-29T04:43:34;15.30;99.90
53310;DHT22;39197;53.200;5.792;2022-07-29T04:46:00;15.30;99.90
53310;DHT22;39197;53.200;5.792;2022-07-29T04:48:26;15.30;99.90
53310;DHT22;39197;53.200;5.792;2022-07-29T04:50:52;15.40;99.90
53310;DHT22;39197;53.200;5.792;2022-07-29T04:53:17;15.40;99.90
53310;DHT22;39197;53.200;5.792;2022-07-29T04:55:44;15.40;99.90
53310;DHT22;39197;53.200;5.792;2022-07-29T04:58:10;15.40;99.90
53310;DHT22;39197;53.200;5.792;2022-07-29T05:00:36;15.50;99.90
53310;DHT22;39197;53.200;5.792;2022-07-29T05:03:01;15.50;99.90
53310;DHT22;39197;53.200;5.792;2022-07-29T05:05:27;15.50;99.90
53310;DHT22;39197;53.200;5.792;2022-07-29T05:07:53;15.50;99.90
53310;DHT22;39197;53.200;5.792;2022-07-29T05:10:18;15.50;99.90
53310;DHT22;39197;53.200;5.792;2022-07-29T05:12:44;15.60;99.90
53310;DHT22;39197;53.200;5.792;2022-07-29T05:15:10;15.60;99.90
53310;DHT22;39197;53.200;5.792;2022-07-29T05:17:35;15.60;99.90
53310;DHT22;39197;53.200;5.792;2022-07-29T05:20:01;15.70;99.90
53310;DHT22;39197;53.200;5.792;2022-07-29T05:22:26;15.70;99.90
53310;DHT22;39197;53.200;5.792;2022-07-29T05:24:52;15.70;99.90
53310;DHT22;39197;53.200;5.792;2022-07-29T05:27:18;15.70;99.90
53310;DHT22;39197;53.200;5.792;2022-07-29T05:29:43;15.80;99.90
53310;DHT22;39197;53.200;5.792;2022-07-29T05:32:09;15.80;99.90
53310;DHT22;39197;53.200;5.792;2022-07-29T05:34:35;15.80;99.90
53310;DHT22;39197;53.200;5.792;2022-07-29T05:37:00;15.80;99.90
53310;DHT22;39197;53.200;5.792;2022-07-29T05:39:26;15.90;99.90
53310;DHT22;39197;53.200;5.792;2022-07-29T05:41:51;16.00;99.90
53310;DHT22;39197;53.200;5.792;2022-07-29T05:44:17;15.90;99.90
53310;DHT22;39197;53.200;5.792;2022-07-29T05:46:43;16.00;99.90
53310;DHT22;39197;53.200;5.792;2022-07-29T05:49:08;16.00;99.90
53310;DHT22;39197;53.200;5.792;2022-07-29T05:51:34;16.00;99.90
53310;DHT22;39197;53.200;5.792;2022-07-29T05:54:00;16.10;99.90
53310;DHT22;39197;53.200;5.792;2022-07-29T05:56:25;16.10;99.90
53310;DHT22;39197;53.200;5.792;2022-07-29T05:58:51;16.20;99.90
53310;DHT22;39197;53.200;5.792;2022-07-29T06:01:18;16.20;99.90
53310;DHT22;39197;53.200;5.792;2022-07-29T06:03:44;16.30;99.90
53310;DHT22;39197;53.200;5.792;2022-07-29T06:06:10;16.40;99.90
53310;DHT22;39197;53.200;5.792;2022-07-29T06:08:36;16.40;99.90
53310;DHT22;39197;53.200;5.792;2022-07-29T06:11:02;16.60;99.90
53310;DHT22;39197;53.200;5.792;2022-07-29T06:13:28;16.70;99.90
53310;DHT22;39197;53.200;5.792;2022-07-29T06:15:54;16.90;99.90
53310;DHT22;39197;53.200;5.792;2022-07-29T06:18:19;17.10;99.90
53310;DHT22;39197;53.200;5.792;2022-07-29T06:20:46;17.20;99.90
53310;DHT22;39197;53.200;5.792;2022-07-29T06:23:12;17.40;99.90
53310;DHT22;39197;53.200;5.792;2022-07-29T06:25:40;17.50;99.90
53310;DHT22;39197;53.200;5.792;2022-07-29T06:28:05;17.60;99.90
53310;DHT22;39197;53.200;5.792;2022-07-29T06:30:31;17.70;99.90
53310;DHT22;39197;53.200;5.792;2022-07-29T06:32:57;17.80;99.90
53310;DHT22;39197;53.200;5.792;2022-07-29T06:35:22;17.80;99.90
53310;DHT22;39197;53.200;5.792;2022-07-29T06:37:48;18.00;99.90
53310;DHT22;39197;53.200;5.792;2022-07-29T06:40:14;18.00;99.90
53310;DHT22;39197;53.200;5.792;2022-07-29T06:42:58;18.20;99.90
53310;DHT22;39197;53.200;5.792;2022-07-29T06:45:24;18.20;99.90
53310;DHT22;39197;53.200;5.792;2022-07-29T06:47:49;18.30;99.90
53310;DHT22;39197;53.200;5.792;2022-07-29T06:50:15;18.40;99.90
53310;DHT22;39197;53.200;5.792;2022-07-29T06:52:41;18.50;99.90
53310;DHT22;39197;53.200;5.792;2022-07-29T06:55:08;18.60;99.90
53310;DHT22;39197;53.200;5.792;2022-07-29T06:57:34;18.70;99.90
53310;DHT22;39197;53.200;5.792;2022-07-29T06:59:59;18.90;99.90
53310;DHT22;39197;53.200;5.792;2022-07-29T07:02:25;19.00;99.90
53310;DHT22;39197;53.200;5.792;2022-07-29T07:04:51;19.10;99.90
53310;DHT22;39197;53.200;5.792;2022-07-29T07:07:17;19.30;99.90
53310;DHT22;39197;53.200;5.792;2022-07-29T07:09:43;19.50;99.90
53310;DHT22;39197;53.200;5.792;2022-07-29T07:12:08;19.60;99.90
53310;DHT22;39197;53.200;5.792;2022-07-29T07:14:34;19.70;99.90
53310;DHT22;39197;53.200;5.792;2022-07-29T07:17:00;19.70;99.90
53310;DHT22;39197;53.200;5.792;2022-07-29T07:19:26;19.80;99.90
53310;DHT22;39197;53.200;5.792;2022-07-29T07:21:55;19.80;99.90
53310;DHT22;39197;53.200;5.792;2022-07-29T07:24:21;20.00;99.90
53310;DHT22;39197;53.200;5.792;2022-07-29T07:26:46;20.20;99.90
53310;DHT22;39197;53.200;5.792;2022-07-29T07:29:12;20.30;99.90
53310;DHT22;39197;53.200;5.792;2022-07-29T07:31:38;20.40;99.90
53310;DHT22;39197;53.200;5.792;2022-07-29T07:34:04;20.40;99.90
53310;DHT22;39197;53.200;5.792;2022-07-29T07:36:30;20.30;99.90
53310;DHT22;39197;53.200;5.792;2022-07-29T07:38:55;20.20;99.90
53310;DHT22;39197;53.200;5.792;2022-07-29T07:41:21;19.90;99.90
53310;DHT22;39197;53.200;5.792;2022-07-29T07:43:47;19.90;99.90
53310;DHT22;39197;53.200;5.792;2022-07-29T07:46:13;19.80;99.90
53310;DHT22;39197;53.200;5.792;2022-07-29T07:48:39;19.70;99.90
53310;DHT22;39197;53.200;5.792;2022-07-29T07:51:04;19.60;99.90
53310;DHT22;39197;53.200;5.792;2022-07-29T07:53:30;19.50;99.90
53310;DHT22;39197;53.200;5.792;2022-07-29T07:55:56;19.40;99.90
53310;DHT22;39197;53.200;5.792;2022-07-29T07:58:22;19.40;99.90
53310;DHT22;39197;53.200;5.792;2022-07-29T08:00:48;19.50;99.90
53310;DHT22;39197;53.200;5.792;2022-07-29T08:03:13;19.50;99.90
53310;DHT22;39197;53.200;5.792;2022-07-29T08:05:42;19.60;99.90
53310;DHT22;39197;53.200;5.792;2022-07-29T08:08:08;19.60;99.90
53310;DHT22;39197;53.200;5.792;2022-07-29T08:10:33;19.60;99.90
53310;DHT22;39197;53.200;5.792;2022-07-29T08:13:18;19.70;99.90
53310;DHT22;39197;53.200;5.792;2022-07-29T08:15:45;19.90;99.90
53310;DHT22;39197;53.200;5.792;2022-07-29T08:18:12;20.10;99.90
53310;DHT22;39197;53.200;5.792;2022-07-29T08:20:38;20.30;99.90
53310;DHT22;39197;53.200;5.792;2022-07-29T08:23:05;20.40;99.90
53310;DHT22;39197;53.200;5.792;2022-07-29T08:25:38;20.70;99.90
53310;DHT22;39197;53.200;5.792;2022-07-29T08:28:04;20.90;99.90
53310;DHT22;39197;53.200;5.792;2022-07-29T08:30:30;21.20;99.90
53310;DHT22;39197;53.200;5.792;2022-07-29T08:32:55;21.40;99.90
53310;DHT22;39197;53.200;5.792;2022-07-29T08:35:23;21.70;99.90
53310;DHT22;39197;53.200;5.792;2022-07-29T08:37:49;21.90;99.90
53310;DHT22;39197;53.200;5.792;2022-07-29T08:40:15;22.10;99.90
53310;DHT22;39197;53.200;5.792;2022-07-29T08:42:40;22.20;99.90
53310;DHT22;39197;53.200;5.792;2022-07-29T08:45:07;22.30;99.90
53310;DHT22;39197;53.200;5.792;2022-07-29T08:47:33;22.30;99.90
53310;DHT22;39197;53.200;5.792;2022-07-29T08:50:01;22.20;99.90
53310;DHT22;39197;53.200;5.792;2022-07-29T08:52:27;22.10;99.90
53310;DHT22;39197;53.200;5.792;2022-07-29T08:54:55;22.00;99.90
53310;DHT22;39197;53.200;5.792;2022-07-29T08:57:21;21.90;99.90
53310;DHT22;39197;53.200;5.792;2022-07-29T08:59:50;21.80;99.90
53310;DHT22;39197;53.200;5.792;2022-07-29T09:02:22;21.80;99.90
53310;DHT22;39197;53.200;5.792;2022-07-29T09:04:48;21.50;99.90
53310;DHT22;39197;53.200;5.792;2022-07-29T09:07:15;21.30;99.90
53310;DHT22;39197;53.200;5.792;2022-07-29T09:09:42;21.00;99.90
53310;DHT22;39197;53.200;5.792;2022-07-29T09:12:08;20.90;99.90
53310;DHT22;39197;53.200;5.792;2022-07-29T09:14:37;20.80;99.90
53310;DHT22;39197;53.200;5.792;2022-07-29T09:17:03;20.80;99.90
53310;DHT22;39197;53.200;5.792;2022-07-29T09:19:34;20.70;99.90
53310;DHT22;39197;53.200;5.792;2022-07-29T09:22:04;20.50;99.90
53310;DHT22;39197;53.200;5.792;2022-07-29T09:24:37;20.60;99.90
53310;DHT22;39197;53.200;5.792;2022-07-29T09:27:17;20.60;99.90
53310;DHT22;39197;53.200;5.792;2022-07-29T09:29:44;20.60;99.90
53310;DHT22;39197;53.200;5.792;2022-07-29T09:32:10;20.70;99.90
53310;DHT22;39197;53.200;5.792;2022-07-29T09:34:36;20.80;99.90
53310;DHT22;39197;53.200;5.792;2022-07-29T09:37:02;20.70;99.90
53310;DHT22;39197;53.200;5.792;2022-07-29T09:39:39;20.70;99.90
53310;DHT22;39197;53.200;5.792;2022-07-29T09:42:11;20.80;99.90
53310;DHT22;39197;53.200;5.792;2022-07-29T09:44:42;20.90;99.90
53310;DHT22;39197;53.200;5.792;2022-07-29T09:47:07;20.90;99.90
53310;DHT22;39197;53.200;5.792;2022-07-29T09:49:34;21.00;99.90
53310;DHT22;39197;53.200;5.792;2022-07-29T09:52:04;21.00;99.90
53310;DHT22;39197;53.200;5.792;2022-07-29T09:54:31;21.10;99.90
53310;DHT22;39197;53.200;5.792;2022-07-29T09:57:02;21.10;99.90
53310;DHT22;39197;53.200;5.792;2022-07-29T09:59:28;21.10;99.90
53310;DHT22;39197;53.200;5.792;2022-07-29T10:01:54;21.10;99.90
53310;DHT22;39197;53.200;5.792;2022-07-29T10:04:20;21.00;99.90
53310;DHT22;39197;53.200;5.792;2022-07-29T10:06:56;21.10;99.90
53310;DHT22;39197;53.200;5.792;2022-07-29T10:09:23;21.10;99.90
53310;DHT22;39197;53.200;5.792;2022-07-29T10:12:09;21.00;99.90
53310;DHT22;39197;53.200;5.792;2022-07-29T10:14:36;21.00;99.90
53310;DHT22;39197;53.200;5.792;2022-07-29T10:17:03;21.00;99.90
53310;DHT22;39197;53.200;5.792;2022-07-29T10:19:30;21.00;99.90
53310;DHT22;39197;53.200;5.792;2022-07-29T10:22:01;21.00;99.90
53310;DHT22;39197;53.200;5.792;2022-07-29T10:24:30;20.90;99.90
53310;DHT22;39197;53.200;5.792;2022-07-29T10:27:01;20.80;99.90
53310;DHT22;39197;53.200;5.792;2022-07-29T10:29:28;20.80;99.90
53310;DHT22;39197;53.200;5.792;2022-07-29T10:40:11;20.90;99.90
53310;DHT22;39197;53.200;5.792;2022-07-29T10:43:08;21.00;99.90
53310;DHT22;39197;53.200;5.792;2022-07-29T10:45:40;21.20;99.90
53310;DHT22;39197;53.200;5.792;2022-07-29T10:48:05;21.20;99.90
53310;DHT22;39197;53.200;5.792;2022-07-29T10:50:59;21.40;99.90
53310;DHT22;39197;53.200;5.792;2022-07-29T10:53:51;21.50;99.90
53310;DHT22;39197;53.200;5.792;2022-07-29T10:56:24;21.50;99.90
53310;DHT22;39197;53.200;5.792;2022-07-29T11:01:43;21.60;99.90
53310;DHT22;39197;53.200;5.792;2022-07-29T11:04:09;21.50;99.90
53310;DHT22;39197;53.200;5.792;2022-07-29T11:09:28;21.50;99.90
53310;DHT22;39197;53.200;5.792;2022-07-29T11:11:56;21.50;99.90
53310;DHT22;39197;53.200;5.792;2022-07-29T11:17:19;21.30;99.90
53310;DHT22;39197;53.200;5.792;2022-07-29T11:19:44;21.20;99.90
53310;DHT22;39197;53.200;5.792;2022-07-29T11:22:11;21.10;99.90
53310;DHT22;39197;53.200;5.792;2022-07-29T11:25:15;21.20;99.90
53310;DHT22;39197;53.200;5.792;2022-07-29T11:27:41;21.20;99.90
53310;DHT22;39197;53.200;5.792;2022-07-29T11:30:07;21.10;99.90
53310;DHT22;39197;53.200;5.792;2022-07-29T11:32:39;21.10;99.90
53310;DHT22;39197;53.200;5.792;2022-07-29T11:35:17;21.10;99.90
53310;DHT22;39197;53.200;5.792;2022-07-29T11:37:46;21.10;99.90
53310;DHT22;39197;53.200;5.792;2022-07-29T11:40:13;21.10;99.90
53310;DHT22;39197;53.200;5.792;2022-07-29T11:42:41;21.10;99.90
53310;DHT22;39197;53.200;5.792;2022-07-29T11:45:14;21.20;99.90
53310;DHT22;39197;53.200;5.792;2022-07-29T11:50:27;21.10;99.90
53310;DHT22;39197;53.200;5.792;2022-07-29T11:52:52;21.00;99.90
53310;DHT22;39197;53.200;5.792;2022-07-29T11:55:20;21.10;99.90
53310;DHT22;39197;53.200;5.792;2022-07-29T11:57:48;21.10;99.90
53310;DHT22;39197;53.200;5.792;2022-07-29T12:00:31;21.20;99.90
53310;DHT22;39197;53.200;5.792;2022-07-29T12:02:59;21.20;99.90
53310;DHT22;39197;53.200;5.792;2022-07-29T12:05:41;21.30;99.90
53310;DHT22;39197;53.200;5.792;2022-07-29T12:08:16;21.40;99.90
53310;DHT22;39197;53.200;5.792;2022-07-29T12:10:45;21.40;99.90
53310;DHT22;39197;53.200;5.792;2022-07-29T12:13:12;21.40;99.90
53310;DHT22;39197;53.200;5.792;2022-07-29T12:15:39;21.50;99.90
53310;DHT22;39197;53.200;5.792;2022-07-29T12:18:23;21.60;99.90
53310;DHT22;39197;53.200;5.792;2022-07-29T12:20:59;21.80;99.90
53310;DHT22;39197;53.200;5.792;2022-07-29T12:23:27;21.90;99.90
53310;DHT22;39197;53.200;5.792;2022-07-29T12:25:53;22.00;99.90
53310;DHT22;39197;53.200;5.792;2022-07-29T12:28:18;22.20;99.90
53310;DHT22;39197;53.200;5.792;2022-07-29T12:30:48;22.30;99.90
53310;DHT22;39197;53.200;5.792;2022-07-29T12:33:23;22.40;99.90
53310;DHT22;39197;53.200;5.792;2022-07-29T12:35:54;22.50;99.90
53310;DHT22;39197;53.200;5.792;2022-07-29T12:38:21;22.70;99.90
53310;DHT22;39197;53.200;5.792;2022-07-29T12:40:48;22.60;99.90
53310;DHT22;39197;53.200;5.792;2022-07-29T12:43:19;22.80;99.90
53310;DHT22;39197;53.200;5.792;2022-07-29T12:45:48;23.00;99.90
53310;DHT22;39197;53.200;5.792;2022-07-29T12:48:14;23.20;99.90
53310;DHT22;39197;53.200;5.792;2022-07-29T12:51:00;23.30;99.90
53310;DHT22;39197;53.200;5.792;2022-07-29T12:53:27;23.30;99.90
53310;DHT22;39197;53.200;5.792;2022-07-29T12:55:54;23.30;99.90
53310;DHT22;39197;53.200;5.792;2022-07-29T13:03:57;23.80;99.90
53310;DHT22;39197;53.200;5.792;2022-07-29T13:11:44;24.10;99.90
53310;DHT22;39197;53.200;5.792;2022-07-29T13:14:11;24.30;99.90
53310;DHT22;39197;53.200;5.792;2022-07-29T13:17:07;24.30;99.90
53310;DHT22;39197;53.200;5.792;2022-07-29T13:19:40;24.30;99.90
53310;DHT22;39197;53.200;5.792;2022-07-29T13:22:13;24.10;99.90
53310;DHT22;39197;53.200;5.792;2022-07-29T13:27:18;24.40;99.90
53310;DHT22;39197;53.200;5.792;2022-07-29T13:29:44;24.90;99.90
53310;DHT22;39197;53.200;5.792;2022-07-29T13:32:11;25.20;99.90
53310;DHT22;39197;53.200;5.792;2022-07-29T13:34:37;25.40;99.90
53310;DHT22;39197;53.200;5.792;2022-07-29T13:37:02;25.30;99.90
53310;DHT22;39197;53.200;5.792;2022-07-29T13:39:28;25.60;99.90
53310;DHT22;39197;53.200;5.792;2022-07-29T13:41:54;25.40;99.90
53310;DHT22;39197;53.200;5.792;2022-07-29T13:44:19;25.70;99.90
53310;DHT22;39197;53.200;5.792;2022-07-29T13:46:45;25.90;99.90
53310;DHT22;39197;53.200;5.792;2022-07-29T13:49:10;26.20;99.90
53310;DHT22;39197;53.200;5.792;2022-07-29T13:51:37;26.50;99.90
53310;DHT22;39197;53.200;5.792;2022-07-29T13:54:03;26.30;99.90
53310;DHT22;39197;53.200;5.792;2022-07-29T13:56:28;26.10;99.90
53310;DHT22;39197;53.200;5.792;2022-07-29T13:58:54;26.20;99.90
53310;DHT22;39197;53.200;5.792;2022-07-29T14:01:20;26.10;99.90
53310;DHT22;39197;53.200;5.792;2022-07-29T14:03:45;26.00;99.90
53310;DHT22;39197;53.200;5.792;2022-07-29T14:06:11;26.10;99.90
53310;DHT22;39197;53.200;5.792;2022-07-29T14:08:37;25.90;99.90
53310;DHT22;39197;53.200;5.792;2022-07-29T14:11:03;26.10;99.90
53310;DHT22;39197;53.200;5.792;2022-07-29T14:13:28;26.50;99.90
53310;DHT22;39197;53.200;5.792;2022-07-29T14:15:54;26.80;99.90
53310;DHT22;39197;53.200;5.792;2022-07-29T14:18:19;26.80;99.70
53310;DHT22;39197;53.200;5.792;2022-07-29T14:20:45;27.20;99.00
53310;DHT22;39197;53.200;5.792;2022-07-29T14:23:10;27.60;98.80
53310;DHT22;39197;53.200;5.792;2022-07-29T14:25:36;27.50;98.30
53310;DHT22;39197;53.200;5.792;2022-07-29T14:28:01;27.40;98.70
53310;DHT22;39197;53.200;5.792;2022-07-29T14:30:27;27.60;99.00
53310;DHT22;39197;53.200;5.792;2022-07-29T14:32:53;27.60;98.40
53310;DHT22;39197;53.200;5.792;2022-07-29T14:35:18;27.60;98.30
53310;DHT22;39197;53.200;5.792;2022-07-29T14:37:44;27.40;97.90
53310;DHT22;39197;53.200;5.792;2022-07-29T14:40:10;27.50;98.10
53310;DHT22;39197;53.200;5.792;2022-07-29T14:42:36;27.80;97.90
53310;DHT22;39197;53.200;5.792;2022-07-29T14:45:04;28.10;97.30
53310;DHT22;39197;53.200;5.792;2022-07-29T14:47:30;27.70;96.80
53310;DHT22;39197;53.200;5.792;2022-07-29T14:49:55;28.20;97.00
53310;DHT22;39197;53.200;5.792;2022-07-29T14:52:21;28.50;96.50
53310;DHT22;39197;53.200;5.792;2022-07-29T14:54:46;28.50;96.00
53310;DHT22;39197;53.200;5.792;2022-07-29T14:57:12;28.70;95.30
53310;DHT22;39197;53.200;5.792;2022-07-29T14:59:37;28.30;95.30
53310;DHT22;39197;53.200;5.792;2022-07-29T15:02:03;28.00;95.70
53310;DHT22;39197;53.200;5.792;2022-07-29T15:04:29;28.20;95.50
53310;DHT22;39197;53.200;5.792;2022-07-29T15:06:55;28.30;95.50
53310;DHT22;39197;53.200;5.792;2022-07-29T15:09:21;28.80;95.20
53310;DHT22;39197;53.200;5.792;2022-07-29T15:11:46;28.80;94.60
53310;DHT22;39197;53.200;5.792;2022-07-29T15:14:12;29.20;94.30
53310;DHT22;39197;53.200;5.792;2022-07-29T15:16:38;29.10;94.10
53310;DHT22;39197;53.200;5.792;2022-07-29T15:19:05;28.90;94.00
53310;DHT22;39197;53.200;5.792;2022-07-29T15:21:30;28.60;93.60
53310;DHT22;39197;53.200;5.792;2022-07-29T15:23:56;28.50;93.70
53310;DHT22;39197;53.200;5.792;2022-07-29T15:26:22;28.40;93.30
53310;DHT22;39197;53.200;5.792;2022-07-29T15:28:48;28.30;93.30
53310;DHT22;39197;53.200;5.792;2022-07-29T15:31:13;28.20;93.50
53310;DHT22;39197;53.200;5.792;2022-07-29T15:33:41;28.20;93.90
53310;DHT22;39197;53.200;5.792;2022-07-29T15:36:07;28.10;94.00
53310;DHT22;39197;53.200;5.792;2022-07-29T15:38:33;27.90;94.40
53310;DHT22;39197;53.200;5.792;2022-07-29T15:40:59;27.70;94.50
53310;DHT22;39197;53.200;5.792;2022-07-29T15:43:24;27.60;95.10
53310;DHT22;39197;53.200;5.792;2022-07-29T15:45:50;27.70;95.10
53310;DHT22;39197;53.200;5.792;2022-07-29T15:48:37;27.50;95.00
53310;DHT22;39197;53.200;5.792;2022-07-29T15:51:03;27.40;95.00
53310;DHT22;39197;53.200;5.792;2022-07-29T15:53:29;27.30;94.70
53310;DHT22;39197;53.200;5.792;2022-07-29T15:55:54;27.00;95.00
53310;DHT22;39197;53.200;5.792;2022-07-29T15:58:20;26.70;95.30
53310;DHT22;39197;53.200;5.792;2022-07-29T16:00:47;26.50;95.60
53310;DHT22;39197;53.200;5.792;2022-07-29T16:03:13;26.50;96.00
53310;DHT22;39197;53.200;5.792;2022-07-29T16:05:38;26.50;96.10
53310;DHT22;39197;53.200;5.792;2022-07-29T16:08:04;26.50;96.30
53310;DHT22;39197;53.200;5.792;2022-07-29T16:10:30;26.60;96.80
53310;DHT22;39197;53.200;5.792;2022-07-29T16:12:55;26.50;97.00
53310;DHT22;39197;53.200;5.792;2022-07-29T16:15:21;26.50;97.40